< < Back
Terminal Aerodrome Forecast


Current Version              Previous Versions:   1  2  3  4  5  6  7  8  9  

Terminal Aerodrome Forecast

872
FTUS44 KBMX 300500
TAFBHM
TAF
KBHM 300523Z 3006/3106 35005KT P6SM SKC=

Latest METAR

625
SAUS70 KWBC 302300 RRG
MTRBHM
METAR KBHM 302253Z 36010KT 10SM FEW050 SCT250 28/10 A3005 RMK AO2 SLP169
T02830100


USA.gov is the U.S. government's official web portal to all federal, state and local government web resources and services.